Wetterstation Vordersexau
Wetterdaten: Woche 06.11.17 - 12.11.17 (KW45)
Datum Zeit Temp. A. Feuchte A. Luftdruck Regen Wind Richtung Taupunkt Windchill Windben
06.11.2017 00:00 5,2 C 82 % 1014,2 hPa 0,5 l/m 0,0 km/h NO 2,4 C 5,2 C 0,0 km/h
06.11.2017 01:00 5,2 C 82 % 1014,7 hPa 0,0 l/m 0,0 km/h N-NO 2,4 C 5,2 C 0,0 km/h
06.11.2017 02:00 5,3 C 81 % 1015,1 hPa 0,0 l/m 0,0 km/h N 2,3 C 5,3 C 0,0 km/h
06.11.2017 03:00 5,3 C 83 % 1015,5 hPa 0,5 l/m 0,0 km/h N 2,7 C 5,3 C 0,0 km/h
06.11.2017 04:00 5,1 C 84 % 1015,9 hPa 0,0 l/m 0,0 km/h N 2,6 C 5,1 C 0,0 km/h
06.11.2017 05:00 4,6 C 84 % 1016,2 hPa 0,0 l/m 0,0 km/h N 2,1 C 4,6 C 0,0 km/h
06.11.2017 06:00 3,9 C 83 % 1016,4 hPa 0,0 l/m 0,0 km/h N 1,3 C 3,9 C 0,0 km/h
06.11.2017 07:00 3,0 C 82 % 1017,1 hPa 0,0 l/m 0,0 km/h N-NO 0,2 C 3,0 C 0,0 km/h
06.11.2017 08:00 3,3 C 81 % 1017,9 hPa 0,0 l/m 0,0 km/h W-NW 0,4 C 3,3 C 0,0 km/h
06.11.2017 09:00 5,9 C 81 % 1018,4 hPa 0,0 l/m 0,0 km/h W 2,9 C 5,9 C 0,0 km/h
06.11.2017 10:00 6,1 C 84 % 1018,9 hPa 0,0 l/m 0,0 km/h N 3,6 C 6,1 C 0,0 km/h
06.11.2017 11:00 7,5 C 84 % 1018,9 hPa 0,0 l/m 0,0 km/h N 5,0 C 7,5 C 0,0 km/h
06.11.2017 12:00 6,8 C 83 % 1018,9 hPa 0,0 l/m 0,0 km/h N 4,1 C 6,8 C 0,0 km/h
06.11.2017 13:00 6,8 C 82 % 1018,9 hPa 0,0 l/m 1,3 km/h N 3,9 C 6,8 C 0,7 km/h
06.11.2017 14:00 7,2 C 82 % 1018,8 hPa 0,0 l/m 0,0 km/h N 4,3 C 7,2 C 0,0 km/h
06.11.2017 15:00 6,9 C 81 % 1019,1 hPa 0,0 l/m 0,0 km/h NW 3,9 C 6,9 C 0,0 km/h
06.11.2017 16:00 6,4 C 83 % 1019,1 hPa 0,0 l/m 0,0 km/h NW 3,7 C 6,4 C 0,0 km/h
06.11.2017 17:00 6,1 C 84 % 1019,6 hPa 0,0 l/m 0,0 km/h N 3,6 C 6,1 C 0,0 km/h
06.11.2017 18:00 5,2 C 84 % 1020,0 hPa 0,0 l/m 0,0 km/h N 2,7 C 5,2 C 0,0 km/h
06.11.2017 19:00 5,3 C 85 % 1020,0 hPa 0,0 l/m 0,0 km/h N 3,0 C 5,3 C 0,0 km/h
06.11.2017 20:00 4,8 C 85 % 1019,6 hPa 0,0 l/m 0,0 km/h N 2,5 C 4,8 C 0,0 km/h
06.11.2017 21:00 4,5 C 85 % 1019,7 hPa 0,0 l/m 0,0 km/h N 2,2 C 4,5 C 0,0 km/h
06.11.2017 22:00 4,9 C 85 % 1019,2 hPa 0,0 l/m 11,0 km/h N 2,6 C 1,3 C 6,1 km/h
06.11.2017 23:00 5,4 C 84 % 1018,7 hPa 0,0 l/m 9,1 km/h O-NO 2,9 C 3,2 C 5,0 km/h
07.11.2017 00:00 5,4 C 82 % 1018,5 hPa 0,0 l/m 0,0 km/h O-NO 2,6 C 5,4 C 0,0 km/h
07.11.2017 01:00 4,1 C 83 % 1018,2 hPa 0,0 l/m 0,0 km/h S 1,5 C 4,1 C 0,0 km/h
07.11.2017 02:00 2,9 C 85 % 1017,7 hPa 0,0 l/m 0,0 km/h S-SO 0,6 C 2,9 C 0,0 km/h
07.11.2017 03:00 2,7 C 85 % 1017,0 hPa 0,0 l/m 0,0 km/h SO 0,4 C 2,7 C 0,0 km/h
07.11.2017 04:00 3,2 C 84 % 1017,0 hPa 0,0 l/m 0,0 km/h SO 0,8 C 3,2 C 0,0 km/h
07.11.2017 05:00 3,6 C 84 % 1016,6 hPa 0,0 l/m 0,0 km/h SW 1,2 C 3,6 C 0,0 km/h
07.11.2017 06:00 3,9 C 83 % 1016,4 hPa 0,0 l/m 0,0 km/h SW 1,3 C 3,9 C 0,0 km/h
07.11.2017 07:00 4,0 C 82 % 1016,5 hPa 0,0 l/m 0,0 km/h W-SW 1,2 C 4,0 C 0,0 km/h
07.11.2017 08:00 4,4 C 82 % 1016,1 hPa 0,0 l/m 0,0 km/h S 1,6 C 4,4 C 0,0 km/h
07.11.2017 09:00 4,6 C 83 % 1016,1 hPa 0,0 l/m 0,0 km/h S 2,0 C 4,6 C 0,0 km/h
07.11.2017 10:00 5,2 C 83 % 1015,8 hPa 0,0 l/m 0,0 km/h S 2,6 C 5,2 C 0,0 km/h
07.11.2017 11:00 5,1 C 83 % 1014,9 hPa 0,0 l/m 0,0 km/h S-SW 2,5 C 5,1 C 0,0 km/h
07.11.2017 12:00 5,5 C 83 % 1014,4 hPa 0,0 l/m 0,0 km/h S-SW 2,8 C 5,5 C 0,0 km/h
07.11.2017 13:00 5,7 C 83 % 1013,9 hPa 0,0 l/m 0,0 km/h S-SW 3,0 C 5,7 C 0,0 km/h
07.11.2017 14:00 5,7 C 83 % 1013,8 hPa 0,0 l/m 0,0 km/h S-SW 3,0 C 5,7 C 0,0 km/h
07.11.2017 15:00 5,5 C 82 % 1013,7 hPa 0,0 l/m 0,0 km/h S-SW 2,7 C 5,5 C 0,0 km/h
07.11.2017 16:00 5,4 C 81 % 1013,7 hPa 0,0 l/m 0,0 km/h S-SW 2,4 C 5,4 C 0,0 km/h
07.11.2017 17:00 5,4 C 79 % 1013,9 hPa 0,0 l/m 0,0 km/h S-SW 2,1 C 5,4 C 0,0 km/h
07.11.2017 18:00 5,4 C 79 % 1013,9 hPa 0,0 l/m 0,0 km/h S-SW 2,1 C 5,4 C 0,0 km/h
07.11.2017 19:00 5,5 C 78 % 1013,5 hPa 0,0 l/m 0,0 km/h S-SW 2,0 C 5,5 C 0,0 km/h
07.11.2017 20:00 5,5 C 77 % 1013,6 hPa 0,0 l/m 0,0 km/h S-SW 1,8 C 5,5 C 0,0 km/h
07.11.2017 21:00 5,6 C 76 % 1013,4 hPa 0,0 l/m 0,0 km/h S 1,7 C 5,6 C 0,0 km/h
07.11.2017 22:00 5,6 C 75 % 1013,3 hPa 0,0 l/m 0,0 km/h S 1,5 C 5,6 C 0,0 km/h
07.11.2017 23:00 5,6 C 74 % 1013,1 hPa 0,0 l/m 0,0 km/h SW 1,3 C 5,6 C 0,0 km/h
08.11.2017 00:00 5,6 C 73 % 1013,1 hPa 0,0 l/m 0,0 km/h S-SO 1,2 C 5,6 C 0,0 km/h
08.11.2017 01:00 5,5 C 72 % 1013,1 hPa 0,5 l/m 0,0 km/h W-SW 0,9 C 5,5 C 0,0 km/h
08.11.2017 02:00 5,4 C 71 % 1013,0 hPa 0,0 l/m 0,0 km/h SW 0,6 C 5,4 C 0,0 km/h
08.11.2017 03:00 5,3 C 70 % 1013,1 hPa 0,0 l/m 0,0 km/h W 0,3 C 5,3 C 0,0 km/h
08.11.2017 04:00 5,1 C 69 % 1013,2 hPa 0,5 l/m 0,0 km/h W-SW -0,1 C 5,1 C 0,0 km/h
08.11.2017 05:00 5,1 C 69 % 1013,3 hPa 1,0 l/m 0,0 km/h W-SW -0,1 C 5,1 C 0,0 km/h
08.11.2017 06:00 5,2 C 69 % 1013,6 hPa 0,0 l/m 0,0 km/h W-SW -0,0 C 5,2 C 0,0 km/h
08.11.2017 07:00 5,2 C 68 % 1014,1 hPa 0,5 l/m 0,0 km/h W-SW -0,2 C 5,2 C 0,0 km/h
08.11.2017 08:00 5,4 C 67 % 1014,3 hPa 0,0 l/m 0,0 km/h S-SW -0,2 C 5,4 C 0,0 km/h
08.11.2017 09:00 5,9 C 67 % 1014,5 hPa 0,0 l/m 0,0 km/h SW 0,3 C 5,9 C 0,0 km/h
08.11.2017 10:00 6,4 C 73 % 1014,8 hPa 0,0 l/m 0,0 km/h SW 1,9 C 6,4 C 0,0 km/h
08.11.2017 11:00 6,9 C 81 % 1015,0 hPa 0,0 l/m 0,0 km/h W 3,9 C 6,9 C 0,0 km/h
08.11.2017 12:00 7,1 C 84 % 1015,1 hPa 0,0 l/m 1,9 km/h W-SW 4,6 C 7,1 C 1,1 km/h
08.11.2017 13:00 6,8 C 84 % 1015,3 hPa 0,0 l/m 0,0 km/h SW 4,3 C 6,8 C 0,0 km/h
08.11.2017 14:00 7,1 C 84 % 1015,6 hPa 0,0 l/m 0,0 km/h SW 4,6 C 7,1 C 0,0 km/h
08.11.2017 15:00 7,3 C 84 % 1015,7 hPa 0,0 l/m 0,0 km/h SW 4,8 C 7,3 C 0,0 km/h
08.11.2017 16:00 6,8 C 84 % 1016,0 hPa 0,0 l/m 0,0 km/h SW 4,3 C 6,8 C 0,0 km/h
08.11.2017 17:00 6,3 C 83 % 1016,6 hPa 0,0 l/m 0,0 km/h SW 3,6 C 6,3 C 0,0 km/h
08.11.2017 18:00 6,1 C 82 % 1016,8 hPa 0,0 l/m 0,0 km/h SW 3,3 C 6,1 C 0,0 km/h
08.11.2017 19:00 5,9 C 81 % 1017,3 hPa 0,0 l/m 0,0 km/h SW 2,9 C 5,9 C 0,0 km/h
08.11.2017 20:00 5,9 C 81 % 1017,7 hPa 0,0 l/m 0,0 km/h SW 2,9 C 5,9 C 0,0 km/h
08.11.2017 21:00 5,9 C 80 % 1017,8 hPa 0,0 l/m 0,0 km/h S 2,7 C 5,9 C 0,0 km/h
08.11.2017 22:00 5,8 C 79 % 1017,9 hPa 0,0 l/m 0,0 km/h S 2,4 C 5,8 C 0,0 km/h
08.11.2017 23:00 5,6 C 79 % 1018,2 hPa 0,0 l/m 0,0 km/h W-SW 2,3 C 5,6 C 0,0 km/h
09.11.2017 00:00 5,8 C 79 % 1018,2 hPa 0,0 l/m 0,0 km/h W-SW 2,4 C 5,8 C 0,0 km/h
09.11.2017 01:00 5,6 C 79 % 1018,3 hPa 0,0 l/m 0,0 km/h W-SW 2,3 C 5,6 C 0,0 km/h
09.11.2017 02:00 5,5 C 80 % 1018,3 hPa 0,0 l/m 0,0 km/h W-SW 2,3 C 5,5 C 0,0 km/h
09.11.2017 03:00 5,3 C 80 % 1018,2 hPa 0,0 l/m 0,0 km/h W-SW 2,1 C 5,3 C 0,0 km/h
09.11.2017 04:00 5,4 C 80 % 1018,5 hPa 0,0 l/m 0,0 km/h W-SW 2,2 C 5,4 C 0,0 km/h
09.11.2017 05:00 5,3 C 79 % 1018,9 hPa 0,0 l/m 0,0 km/h W-SW 2,0 C 5,3 C 0,0 km/h
09.11.2017 06:00 5,5 C 79 % 1019,6 hPa 0,0 l/m 0,0 km/h W-SW 2,2 C 5,5 C 0,0 km/h
09.11.2017 07:00 5,4 C 79 % 1020,3 hPa 0,0 l/m 0,0 km/h W-SW 2,1 C 5,4 C 0,0 km/h
09.11.2017 08:00 5,8 C 79 % 1020,9 hPa 0,0 l/m 0,0 km/h SW 2,4 C 5,8 C 0,0 km/h
09.11.2017 09:00 6,9 C 78 % 1021,1 hPa 0,0 l/m 0,0 km/h SW 3,3 C 6,9 C 0,0 km/h
09.11.2017 10:00 8,2 C 83 % 1021,1 hPa 0,0 l/m 0,0 km/h W 5,5 C 8,2 C 0,0 km/h
09.11.2017 11:00 9,3 C 84 % 1021,0 hPa 0,0 l/m 0,0 km/h NW 6,7 C 9,3 C 0,0 km/h
09.11.2017 12:00 8,6 C 82 % 1021,0 hPa 0,0 l/m 0,0 km/h W 5,7 C 8,6 C 0,0 km/h
09.11.2017 13:00 7,9 C 84 % 1021,0 hPa 0,0 l/m 0,0 km/h W 5,4 C 7,9 C 0,0 km/h
09.11.2017 14:00 7,9 C 84 % 1020,9 hPa 0,0 l/m 0,0 km/h N-NW 5,4 C 7,9 C 0,0 km/h
09.11.2017 15:00 7,8 C 84 % 1021,4 hPa 0,0 l/m 0,0 km/h N-NW 5,3 C 7,8 C 0,0 km/h
09.11.2017 16:00 7,2 C 85 % 1021,9 hPa 0,0 l/m 0,0 km/h NW 4,9 C 7,2 C 0,0 km/h
09.11.2017 17:00 6,3 C 85 % 1022,3 hPa 0,0 l/m 0,0 km/h NW 4,0 C 6,3 C 0,0 km/h
09.11.2017 18:00 5,7 C 85 % 1022,9 hPa 0,0 l/m 0,0 km/h NW 3,4 C 5,7 C 0,0 km/h
09.11.2017 19:00 6,1 C 84 % 1023,1 hPa 0,0 l/m 0,0 km/h NW 3,6 C 6,1 C 0,0 km/h
09.11.2017 20:00 6,3 C 84 % 1023,1 hPa 0,0 l/m 0,0 km/h NW 3,8 C 6,3 C 0,0 km/h
09.11.2017 21:00 6,2 C 83 % 1022,9 hPa 0,0 l/m 0,0 km/h O-SO 3,5 C 6,2 C 0,0 km/h
09.11.2017 22:00 5,6 C 82 % 1022,8 hPa 0,0 l/m 0,0 km/h O-NO 2,8 C 5,6 C 0,0 km/h
09.11.2017 23:00 5,1 C 82 % 1023,0 hPa 0,0 l/m 0,0 km/h O-NO 2,3 C 5,1 C 0,0 km/h
10.11.2017 00:00 5,3 C 81 % 1023,2 hPa 0,0 l/m 0,0 km/h NO 2,3 C 5,3 C 0,0 km/h
10.11.2017 01:00 5,8 C 80 % 1023,0 hPa 0,0 l/m 0,0 km/h SO 2,6 C 5,8 C 0,0 km/h
10.11.2017 02:00 5,9 C 78 % 1022,0 hPa 0,0 l/m 0,0 km/h S-SO 2,4 C 5,9 C 0,0 km/h
10.11.2017 03:00 5,8 C 78 % 1021,8 hPa 0,0 l/m 0,0 km/h W 2,3 C 5,8 C 0,0 km/h
10.11.2017 04:00 5,6 C 78 % 1021,6 hPa 0,0 l/m 0,0 km/h W 2,1 C 5,6 C 0,0 km/h
10.11.2017 05:00 5,0 C 81 % 1021,9 hPa 0,0 l/m 0,0 km/h S-SO 2,0 C 5,0 C 0,0 km/h
10.11.2017 06:00 4,7 C 84 % 1021,3 hPa 0,0 l/m 0,0 km/h S-SO 2,2 C 4,7 C 0,0 km/h
10.11.2017 07:00 5,3 C 85 % 1021,3 hPa 0,0 l/m 5,2 km/h SW 3,0 C 5,3 C 2,9 km/h
10.11.2017 08:00 6,0 C 81 % 1021,4 hPa 0,0 l/m 14,9 km/h S-SW 3,0 C 0,3 C 8,3 km/h
10.11.2017 09:00 6,5 C 78 % 1021,1 hPa 0,0 l/m 9,7 km/h SW 2,9 C 3,9 C 5,4 km/h
10.11.2017 10:00 6,9 C 77 % 1020,5 hPa 0,0 l/m 20,1 km/h W 3,2 C -0,8 C 11,2 km/h
10.11.2017 11:00 7,4 C 75 % 1019,8 hPa 0,0 l/m 3,2 km/h S-SW 3,3 C 7,4 C 1,8 km/h
10.11.2017 12:00 6,1 C 82 % 1018,9 hPa 0,0 l/m 0,0 km/h S-SO 3,3 C 6,1 C 0,0 km/h
10.11.2017 13:00 6,3 C 84 % 1018,2 hPa 0,5 l/m 4,5 km/h S-SW 3,8 C 6,3 C 2,5 km/h
10.11.2017 14:00 6,1 C 85 % 1017,5 hPa 0,5 l/m 0,0 km/h S 3,8 C 6,1 C 0,0 km/h
10.11.2017 15:00 6,9 C 84 % 1017,4 hPa 0,5 l/m 30,5 km/h SW 4,4 C -3,8 C 16,9 km/h
10.11.2017 16:00 7,3 C 82 % 1017,4 hPa 0,0 l/m 16,8 km/h S-SW 4,4 C 1,1 C 9,4 km/h
10.11.2017 17:00 6,4 C 85 % 1017,4 hPa 0,0 l/m 25,9 km/h S-SW 4,1 C -3,3 C 14,4 km/h
10.11.2017 18:00 6,9 C 85 % 1017,2 hPa 0,0 l/m 18,8 km/h SW 4,6 C -0,3 C 10,4 km/h
10.11.2017 19:00 7,4 C 85 % 1017,3 hPa 0,5 l/m 25,3 km/h W-SW 5,0 C -1,8 C 14,0 km/h
10.11.2017 20:00 7,6 C 85 % 1017,2 hPa 0,0 l/m 13,0 km/h S-SW 5,2 C 3,2 C 7,2 km/h
10.11.2017 21:00 7,8 C 85 % 1017,0 hPa 0,0 l/m 20,1 km/h S-SW 5,4 C 0,4 C 11,2 km/h
10.11.2017 22:00 7,8 C 85 % 1016,7 hPa 0,0 l/m 13,6 km/h SW 5,4 C 3,1 C 7,6 km/h
10.11.2017 23:00 7,8 C 85 % 1016,9 hPa 0,0 l/m 24,0 km/h W 5,4 C -0,9 C 13,3 km/h
11.11.2017 00:00 7,6 C 84 % 1017,0 hPa 0,0 l/m 0,0 km/h W-SW 5,1 C 7,6 C 0,0 km/h
11.11.2017 01:00 7,4 C 84 % 1017,0 hPa 0,0 l/m 0,0 km/h W-SW 4,9 C 7,4 C 0,0 km/h
11.11.2017 02:00 6,9 C 84 % 1017,2 hPa 0,0 l/m 0,0 km/h S-SW 4,4 C 6,9 C 0,0 km/h
11.11.2017 03:00 6,8 C 84 % 1017,1 hPa 0,0 l/m 0,0 km/h S 4,3 C 6,8 C 0,0 km/h
11.11.2017 04:00 6,2 C 85 % 1016,8 hPa 0,0 l/m 0,0 km/h S-SO 3,9 C 6,2 C 0,0 km/h
11.11.2017 05:00 5,9 C 85 % 1016,2 hPa 0,0 l/m 0,0 km/h SW 3,6 C 5,9 C 0,0 km/h
11.11.2017 06:00 7,0 C 85 % 1016,1 hPa 0,0 l/m 13,6 km/h SW 4,7 C 2,2 C 7,6 km/h
11.11.2017 07:00 7,4 C 85 % 1015,5 hPa 0,0 l/m 1,9 km/h S-SW 5,0 C 7,4 C 1,1 km/h
11.11.2017 08:00 8,2 C 83 % 1015,4 hPa 0,0 l/m 24,6 km/h SW 5,5 C -0,5 C 13,7 km/h
11.11.2017 09:00 8,3 C 82 % 1014,3 hPa 0,0 l/m 17,5 km/h S-SW 5,4 C 2,0 C 9,7 km/h
11.11.2017 10:00 7,2 C 85 % 1013,9 hPa 0,0 l/m 22,0 km/h S 4,9 C -1,0 C 12,2 km/h
11.11.2017 11:00 6,9 C 84 % 1012,9 hPa 0,5 l/m 14,3 km/h S-SO 4,4 C 1,7 C 7,9 km/h
11.11.2017 12:00 6,7 C 84 % 1012,3 hPa 0,5 l/m 9,7 km/h W 4,2 C 4,2 C 5,4 km/h
11.11.2017 13:00 7,1 C 83 % 1010,9 hPa 0,5 l/m 18,8 km/h SW 4,4 C -0,0 C 10,4 km/h
11.11.2017 14:00 7,6 C 83 % 1009,9 hPa 0,5 l/m 24,6 km/h S-SW 4,9 C -1,3 C 13,7 km/h
11.11.2017 15:00 8,4 C 83 % 1009,1 hPa 0,0 l/m 5,8 km/h S 5,7 C 8,4 C 3,2 km/h
11.11.2017 16:00 9,1 C 85 % 1008,6 hPa 0,0 l/m 22,7 km/h S 6,7 C 1,3 C 12,6 km/h
11.11.2017 17:00 8,9 C 83 % 1008,5 hPa 0,5 l/m 9,7 km/h SW 6,2 C 6,6 C 5,4 km/h
11.11.2017 18:00 9,3 C 81 % 1008,2 hPa 0,0 l/m 19,4 km/h W-SW 6,2 C 2,6 C 10,8 km/h
11.11.2017 19:00 9,3 C 80 % 1008,1 hPa 0,0 l/m 26,6 km/h SW 6,0 C 0,5 C 14,8 km/h
11.11.2017 20:00 9,5 C 78 % 1008,1 hPa 0,5 l/m 18,8 km/h S-SW 5,9 C 3,1 C 10,4 km/h
11.11.2017 21:00 10,4 C 82 % 1008,0 hPa 0,0 l/m 7,8 km/h W-SW 7,5 C 9,4 C 4,3 km/h
11.11.2017 22:00 9,9 C 77 % 1008,1 hPa 0,5 l/m 13,6 km/h S-SW 6,1 C 5,6 C 7,6 km/h
11.11.2017 23:00 10,2 C 75 % 1007,7 hPa 0,0 l/m 0,0 km/h S-SW 6,0 C 10,2 C 0,0 km/h
12.11.2017 00:00 10,1 C 72 % 1007,4 hPa 0,5 l/m 24,0 km/h S-SW 5,3 C 2,2 C 13,3 km/h
12.11.2017 01:00 10,2 C 69 % 1006,9 hPa 1,0 l/m 3,9 km/h S-SW 4,8 C 10,2 C 2,2 km/h
12.11.2017 02:00 10,3 C 67 % 1006,3 hPa 1,0 l/m 21,4 km/h W 4,4 C 3,2 C 11,9 km/h
12.11.2017 03:00 9,9 C 67 % 1006,2 hPa 1,0 l/m 0,0 km/h W-NW 4,1 C 9,9 C 0,0 km/h
12.11.2017 04:00 7,9 C 70 % 1006,0 hPa 1,6 l/m 0,0 km/h S-SO 2,8 C 7,9 C 0,0 km/h
12.11.2017 05:00 7,8 C 70 % 1005,1 hPa 0,0 l/m 0,0 km/h W-NW 2,7 C 7,8 C 0,0 km/h
12.11.2017 06:00 7,2 C 69 % 1004,4 hPa 1,6 l/m 0,0 km/h SW 1,9 C 7,2 C 0,0 km/h
12.11.2017 07:00 7,1 C 68 % 1003,4 hPa 1,6 l/m 0,0 km/h S-SW 1,6 C 7,1 C 0,0 km/h
12.11.2017 08:00 9,6 C 60 % 1002,2 hPa 0,5 l/m 29,2 km/h SW 2,2 C 0,3 C 16,2 km/h
12.11.2017 09:00 10,4 C 59 % 1001,4 hPa 0,5 l/m 14,9 km/h SW 2,7 C 5,7 C 8,3 km/h
12.11.2017 10:00 10,2 C 78 % 1000,3 hPa 0,0 l/m 35,0 km/h W-SW 6,5 C -0,0 C 19,4 km/h
12.11.2017 11:00 10,9 C 83 % 998,3 hPa 0,0 l/m 37,6 km/h S 8,1 C 0,6 C 20,9 km/h
12.11.2017 12:00 11,1 C 83 % 996,7 hPa 0,0 l/m 33,0 km/h W 8,3 C 1,6 C 18,4 km/h
12.11.2017 13:00 10,9 C 84 % 994,8 hPa 0,0 l/m 46,0 km/h S-SW 8,3 C -0,5 C 25,6 km/h
12.11.2017 14:00 7,4 C 84 % 996,2 hPa 5,2 l/m 5,2 km/h NW 4,9 C 7,4 C 2,9 km/h
12.11.2017 15:00 6,9 C 83 % 998,6 hPa 0,5 l/m 5,2 km/h N-NO 4,2 C 6,9 C 2,9 km/h
12.11.2017 16:00 4,9 C 85 % 1000,6 hPa 0,0 l/m 7,8 km/h N 2,6 C 3,7 C 4,3 km/h
12.11.2017 17:00 4,4 C 85 % 1001,8 hPa 0,0 l/m 0,0 km/h NO 2,1 C 4,4 C 0,0 km/h
12.11.2017 18:00 2,4 C 85 % 1003,5 hPa 0,0 l/m 0,0 km/h W-NW 0,1 C 2,4 C 0,0 km/h
12.11.2017 19:00 3,5 C 81 % 1005,0 hPa 1,0 l/m 0,0 km/h SW 0,6 C 3,5 C 0,0 km/h
12.11.2017 20:00 2,9 C 81 % 1005,6 hPa 0,0 l/m 0,0 km/h S-SO -0,0 C 2,9 C 0,0 km/h
12.11.2017 21:00 3,2 C 80 % 1005,7 hPa 0,0 l/m 0,0 km/h S-SO 0,1 C 3,2 C 0,0 km/h
12.11.2017 22:00 3,3 C 79 % 1005,9 hPa 0,0 l/m 0,0 km/h S-SO 0,0 C 3,3 C 0,0 km/h
12.11.2017 23:00 3,4 C 79 % 1005,9 hPa 0,0 l/m 0,0 km/h W 0,1 C 3,4 C 0,0 km/h
Min-Datum _ 12.11.17 12.11.17 12.11.17 - 06.11.17 - 08.11.17 10.11.17 06.11.17
_ Min-Zeit 18:53 09:53 13:53 - 00:53 - 08:53 15:53 00:53
Minimum _ 2,4 C 59 % 994,8 hPa - 0,0 km/h - -0,2 C -3,8 C 0,0 km/h
Max-Datum _ 12.11.17 06.11.17 10.11.17 12.11.17 12.11.17 - 12.11.17 11.11.17 12.11.17
_ Max-Zeit 12:53 19:53 00:53 14:53 13:53 - 12:53 23:53 13:53
Maximum _ 11,1 C 85 % 1023,2 hPa 5,2 l/m 46,0 km/h
S-SW
- 8,3 C 10,2 C 25,6 km/h
S-SW
Durchschnitt _ 6,4 C 80 % 1014,8 hPa #25,4 l/m 4,8 km/h SW 3,2 C 4,9 C 2,7 km/h
www.sexauwetter.de